Time;durP1;ratioP1;P1;durP2;ratioP2;P2;SDS_P1;SDS_P2;PMS_P1;PMS_P2;Temp;Humidity;BMP_temperature;BMP_pressure;BME280_temperature;BME280_humidity;BME280_pressure;Samples;Min_cycle;Max_cycle;Signal;HPM_P1;HPM_P2
2023/05/02 00:00:50;;;;;;;12.00;8.02;;;;;;;7.71;100.00;94043.72;4801719;29;20442;-60
2023/05/02 00:03:16;;;;;;;12.17;7.57;;;;;;;7.71;100.00;94044.47;4785359;29;20058;-59
2023/05/02 00:05:44;;;;;;;14.75;7.70;;;;;;;7.66;100.00;94038.63;4800806;29;21590;-60
2023/05/02 00:08:11;;;;;;;12.52;7.50;;;;;;;7.63;100.00;94037.47;4801136;29;20084;-62
2023/05/02 00:10:38;;;;;;;10.88;7.28;;;;;;;7.59;100.00;94033.97;4801070;29;20058;-62
2023/05/02 00:13:05;;;;;;;9.90;6.78;;;;;;;7.54;100.00;94037.88;4801275;29;20057;-60
2023/05/02 00:15:31;;;;;;;11.00;7.40;;;;;;;7.54;100.00;94032.41;4801201;29;20059;-60
2023/05/02 00:17:59;;;;;;;11.18;7.03;;;;;;;7.60;100.00;94032.78;4800996;29;20125;-59
2023/05/02 00:20:26;;;;;;;11.05;6.78;;;;;;;7.67;100.00;94027.31;4801083;29;20047;-59
2023/05/02 00:22:54;;;;;;;20.42;12.40;;;;;;;7.74;100.00;94021.06;4801318;29;20127;-60
2023/05/02 00:25:21;;;;;;;10.93;7.60;;;;;;;7.74;100.00;94023.78;4800768;29;20057;-60
2023/05/02 00:27:49;;;;;;;12.50;7.63;;;;;;;7.71;100.00;94025.38;4801541;29;20085;-62
2023/05/02 00:30:17;;;;;;;12.45;7.43;;;;;;;7.73;100.00;94024.97;4801337;29;20470;-60
2023/05/02 00:32:44;;;;;;;10.27;6.88;;;;;;;7.60;100.00;94027.31;4800733;29;20794;-60
2023/05/02 00:35:10;;;;;;;9.18;6.22;;;;;;;7.46;100.00;94028.13;4800992;29;20528;-61
2023/05/02 00:37:37;;;;;;;10.65;6.82;;;;;;;7.55;100.00;94038.66;4800735;29;20111;-59
2023/05/02 00:40:06;;;;;;;10.23;6.50;;;;;;;7.57;100.00;94034.38;4801010;29;20050;-60
2023/05/02 00:42:35;;;;;;;22.02;6.75;;;;;;;7.60;100.00;94028.09;4800810;29;20069;-59
2023/05/02 00:45:05;;;;;;;10.88;6.38;;;;;;;7.56;100.00;94029.28;4803323;29;20527;-59
2023/05/02 00:47:32;;;;;;;11.88;6.63;;;;;;;7.59;100.00;94031.25;4804049;29;20054;-62
2023/05/02 00:49:59;;;;;;;12.88;6.45;;;;;;;7.45;100.00;94036.75;4804681;29;20054;-59
2023/05/02 00:52:27;;;;;;;67.73;11.20;;;;;;;7.35;100.00;94038.31;4804109;29;20194;-60
2023/05/02 00:54:54;;;;;;;46.63;8.70;;;;;;;7.15;100.00;94035.19;4804744;29;20069;-59
2023/05/02 00:57:22;;;;;;;47.90;7.45;;;;;;;6.95;100.00;94029.34;4804208;29;20047;-60
2023/05/02 00:59:49;;;;;;;27.00;7.15;;;;;;;6.97;100.00;94038.69;4804624;29;20059;-60
2023/05/02 01:02:30;;;;;;;46.22;6.82;;;;;;;6.77;100.00;94046.47;4804262;29;20920;-60
2023/05/02 01:05:16;;;;;;;10.43;6.47;;;;;;;7.03;100.00;94041.81;4803516;29;20059;-65
2023/05/02 01:07:57;;;;;;;110.75;8.88;;;;;;;7.15;100.00;94040.66;4803699;29;20793;-60
2023/05/02 01:10:42;;;;;;;27.98;7.28;;;;;;;7.16;100.00;94045.72;4803933;29;20049;-59
2023/05/02 01:13:12;;;;;;;32.35;7.18;;;;;;;7.13;100.00;94048.47;4804032;29;20059;-60
2023/05/02 01:15:40;;;;;;;40.47;7.80;;;;;;;7.11;100.00;94037.91;4803915;29;20073;-60
2023/05/02 01:18:10;;;;;;;30.73;7.47;;;;;;;7.22;100.00;94042.59;4803908;29;20055;-59
2023/05/02 01:20:43;;;;;;;148.10;11.35;;;;;;;7.23;100.00;94050.41;4803611;29;20055;-62
2023/05/02 01:23:29;;;;;;;45.28;7.10;;;;;;;7.17;100.00;94043.78;4803930;29;20049;-61
2023/05/02 01:26:20;;;;;;;37.47;6.60;;;;;;;7.13;100.00;94051.19;4803370;29;20850;-60
2023/05/02 01:28:58;;;;;;;48.97;8.27;;;;;;;6.82;100.00;94041.81;4803443;29;21795;-60
2023/05/02 01:31:30;;;;;;;35.20;7.60;;;;;;;6.79;100.00;94046.88;4803655;29;20047;-60
2023/05/02 01:33:58;;;;;;;27.25;7.20;;;;;;;7.07;100.00;94045.34;4804166;29;20043;-60
2023/05/02 01:36:30;;;;;;;28.38;7.60;;;;;;;7.15;100.00;94051.56;4802353;29;20390;-62
2023/05/02 01:38:59;;;;;;;42.42;7.68;;;;;;;7.18;100.00;94054.31;4804283;29;20418;-60
2023/05/02 01:41:27;;;;;;;37.65;7.45;;;;;;;7.21;100.00;94060.94;4803223;29;20404;-62
2023/05/02 01:43:59;;;;;;;25.73;7.17;;;;;;;7.19;100.00;94061.31;4803560;29;20099;-60
2023/05/02 01:46:30;;;;;;;32.40;7.55;;;;;;;7.17;100.00;94062.88;4802851;29;20493;-59
2023/05/02 01:49:00;;;;;;;37.33;7.43;;;;;;;7.10;100.00;94060.94;4787872;29;20062;-60
2023/05/02 01:51:30;;;;;;;29.33;7.70;;;;;;;7.10;100.00;94060.94;4803234;29;20620;-62
2023/05/02 01:54:06;;;;;;;18.77;7.75;;;;;;;7.07;100.00;94058.97;4803613;29;20050;-62
2023/05/02 01:56:35;;;;;;;9.73;6.50;;;;;;;7.04;100.00;94062.47;4802988;29;20057;-60
2023/05/02 01:59:07;;;;;;;10.75;6.88;;;;;;;7.04;100.00;94065.19;4803249;29;20055;-60
2023/05/02 02:01:36;;;;;;;12.25;7.28;;;;;;;7.11;100.00;94062.47;4802969;29;20051;-59
2023/05/02 02:04:05;;;;;;;16.27;6.95;;;;;;;7.01;100.00;94060.53;4803307;29;20123;-59
2023/05/02 02:06:32;;;;;;;10.98;6.90;;;;;;;7.03;100.00;94060.91;4786844;29;20047;-59
2023/05/02 02:09:00;;;;;;;12.07;7.30;;;;;;;7.06;100.00;94067.53;4803397;29;20754;-60
2023/05/02 02:11:34;;;;;;;10.35;6.70;;;;;;;7.12;100.00;94058.59;4802816;29;20129;-61
2023/05/02 02:14:09;;;;;;;10.55;7.03;;;;;;;7.04;100.00;94057.00;4803288;29;20076;-65
2023/05/02 02:16:40;;;;;;;11.52;7.20;;;;;;;7.10;100.00;94060.13;4802920;29;20063;-59
2023/05/02 02:19:09;;;;;;;16.98;7.32;;;;;;;7.13;100.00;94059.38;4802802;29;20717;-61
2023/05/02 02:21:37;;;;;;;11.97;7.10;;;;;;;7.05;100.00;94064.03;4803096;29;20055;-62
2023/05/02 02:24:05;;;;;;;9.43;6.35;;;;;;;6.92;100.00;94060.13;4803169;29;20054;-61
2023/05/02 02:26:32;;;;;;;10.27;6.38;;;;;;;7.04;100.00;94061.69;4802758;29;20057;-62
2023/05/02 02:29:00;;;;;;;10.07;6.78;;;;;;;7.00;100.00;94059.75;4803035;29;20054;-61
2023/05/02 02:31:31;;;;;;;9.90;7.00;;;;;;;7.00;100.00;94062.50;4802482;29;20057;-59
2023/05/02 02:33:59;;;;;;;10.17;6.83;;;;;;;6.89;100.00;94064.41;4803259;29;20126;-59
2023/05/02 02:36:30;;;;;;;10.35;7.18;;;;;;;6.84;100.00;94069.47;4802447;29;20051;-62
2023/05/02 02:39:38;;;;;;;10.95;7.68;;;;;;;6.90;100.00;94065.19;4803201;29;20626;-60
2023/05/02 02:42:26;;;;;;;11.32;7.25;;;;;;;6.90;100.00;94059.72;4801863;29;20674;-60
2023/05/02 02:45:35;;;;;;;13.18;7.55;;;;;;;6.90;100.00;94068.72;4801947;29;21777;-59
2023/05/02 02:48:19;;;;;;;11.67;7.60;;;;;;;6.90;100.00;94074.19;4785713;29;20405;-59
2023/05/02 02:50:52;;;;;;;11.65;7.38;;;;;;;6.91;100.00;94074.94;4783984;30;20301;-59
2023/05/02 02:53:25;;;;;;;18.05;8.00;;;;;;;6.88;100.00;94070.25;4784335;30;20066;-61
2023/05/02 02:55:57;;;;;;;25.52;8.48;;;;;;;6.64;100.00;94075.31;4784965;30;20059;-59
2023/05/02 02:58:45;;;;;;;39.67;9.43;;;;;;;6.58;100.00;94082.28;4767894;29;20063;-61
2023/05/02 03:01:18;;;;;;;48.47;8.90;;;;;;;6.47;100.00;94089.66;4784571;29;20054;-60
2023/05/02 03:03:47;;;;;;;43.60;9.75;;;;;;;6.56;100.00;94087.31;4783915;29;21565;-60
2023/05/02 03:06:17;;;;;;;67.47;8.65;;;;;;;6.56;100.00;94096.31;4783940;30;20052;-59
2023/05/02 03:08:44;;;;;;;46.95;8.98;;;;;;;6.48;100.00;94096.66;4783633;30;20728;-62
2023/05/02 03:11:11;;;;;;;155.55;11.25;;;;;;;6.40;100.00;94093.16;4784162;30;20108;-60
2023/05/02 03:13:38;;;;;;;160.70;11.73;;;;;;;6.22;100.00;94095.81;4783823;29;20063;-60
2023/05/02 03:16:31;;;;;;;19.92;8.90;;;;;;;6.22;100.00;94101.25;4784245;30;20047;-65
2023/05/02 03:18:58;;;;;;;47.25;8.70;;;;;;;6.26;100.00;94104.78;4767377;30;20059;-61
2023/05/02 03:21:25;;;;;;;45.20;8.30;;;;;;;6.16;100.00;94110.97;4783610;30;20056;-59
2023/05/02 03:23:52;;;;;;;108.03;9.95;;;;;;;6.15;100.00;94112.09;4784082;30;20047;-59
2023/05/02 03:26:18;;;;;;;53.27;8.03;;;;;;;6.01;100.00;94121.00;4783180;29;20047;-62
2023/05/02 03:28:45;;;;;;;101.13;8.63;;;;;;;5.83;100.00;94118.13;4783915;30;20047;-60
2023/05/02 03:31:13;;;;;;;33.22;7.70;;;;;;;5.93;100.00;94120.13;4768020;30;20061;-62
2023/05/02 03:33:40;;;;;;;21.38;7.55;;;;;;;5.89;100.00;94124.00;4767723;30;20051;-61
2023/05/02 03:36:07;;;;;;;20.20;6.93;;;;;;;5.94;100.00;94127.16;4783764;29;20077;-60
2023/05/02 03:38:34;;;;;;;21.93;7.20;;;;;;;5.94;100.00;94116.25;4783297;30;20131;-60
2023/05/02 03:41:01;;;;;;;90.38;10.20;;;;;;;5.94;100.00;94115.50;4783907;30;20059;-60
2023/05/02 03:43:30;;;;;;;22.42;8.43;;;;;;;5.92;100.00;94124.03;4783201;30;20109;-62
2023/05/02 03:45:57;;;;;;;33.22;8.10;;;;;;;5.75;100.00;94124.69;4784424;29;20073;-59
2023/05/02 03:48:24;;;;;;;13.80;6.80;;;;;;;5.61;100.00;94128.09;4800738;29;20180;-60
2023/05/02 03:50:50;;;;;;;123.40;9.67;;;;;;;5.57;100.00;94127.28;4785542;29;20051;-62
2023/05/02 03:53:17;;;;;;;32.80;8.10;;;;;;;5.66;100.00;94135.94;4801229;29;20069;-61
2023/05/02 03:55:44;;;;;;;23.45;8.15;;;;;;;5.73;100.00;94135.19;4800786;29;20337;-59
2023/05/02 03:58:11;;;;;;;46.67;8.10;;;;;;;5.34;100.00;94135.69;4801230;29;20135;-59
2023/05/02 04:00:38;;;;;;;33.42;9.35;;;;;;;5.43;100.00;94147.03;4801142;29;20534;-60
2023/05/02 04:03:05;;;;;;;22.33;8.67;;;;;;;5.54;100.00;94152.56;4801485;29;20057;-61
2023/05/02 04:05:32;;;;;;;45.97;8.75;;;;;;;5.39;100.00;94138.84;4800452;29;20046;-61
2023/05/02 04:08:00;;;;;;;65.07;10.13;;;;;;;5.39;100.00;94144.28;4801446;29;20224;-60
2023/05/02 04:10:26;;;;;;;24.85;8.25;;;;;;;5.31;100.00;94148.13;4800591;29;20054;-59
2023/05/02 04:12:53;;;;;;;58.45;8.88;;;;;;;5.11;100.00;94149.47;4785158;29;20095;-61
2023/05/02 04:15:20;;;;;;;21.00;8.57;;;;;;;5.34;100.00;94146.56;4800700;29;20413;-63
2023/05/02 04:17:46;;;;;;;28.98;8.50;;;;;;;5.47;100.00;94150.56;4801518;29;20122;-60
2023/05/02 04:20:14;;;;;;;20.15;9.07;;;;;;;5.45;100.00;94152.88;4801042;29;20107;-60
2023/05/02 04:22:41;;;;;;;71.65;33.42;;;;;;;5.42;100.00;94152.88;4800962;29;20061;-62
2023/05/02 04:25:08;;;;;;;24.52;12.48;;;;;;;5.32;100.00;94157.06;4801169;29;20065;-59
2023/05/02 04:27:34;;;;;;;16.33;8.83;;;;;;;5.28;100.00;94156.25;4784590;29;20059;-60
2023/05/02 04:30:01;;;;;;;18.02;9.70;;;;;;;5.22;100.00;94169.41;4801207;29;20059;-59
2023/05/02 04:32:29;;;;;;;15.68;9.90;;;;;;;5.42;100.00;94180.09;4784473;29;20207;-61
2023/05/02 04:34:56;;;;;;;15.88;9.10;;;;;;;5.32;100.00;94181.53;4801410;29;20055;-60
2023/05/02 04:37:24;;;;;;;13.85;8.10;;;;;;;5.48;100.00;94190.25;4800642;29;20053;-60
2023/05/02 04:39:50;;;;;;;20.30;9.63;;;;;;;5.16;100.00;94193.44;4801198;29;20051;-62
2023/05/02 04:42:17;;;;;;;64.80;12.40;;;;;;;4.79;100.00;94196.19;4800919;29;20078;-59
2023/05/02 04:44:44;;;;;;;33.83;10.20;;;;;;;5.03;100.00;94203.03;4800355;29;21780;-60
2023/05/02 04:47:11;;;;;;;16.58;9.88;;;;;;;5.46;100.00;94213.56;4790618;29;20067;-64
2023/05/02 04:49:37;;;;;;;16.95;9.93;;;;;;;5.67;100.00;94210.22;4766517;30;20709;-60
2023/05/02 04:52:05;;;;;;;16.67;10.37;;;;;;;5.83;100.00;94208.00;4782901;30;20047;-60
2023/05/02 04:54:33;;;;;;;18.27;10.60;;;;;;;5.96;100.00;94214.75;4782168;30;20057;-59
2023/05/02 04:57:02;;;;;;;17.17;10.40;;;;;;;5.97;100.00;94212.81;4782912;30;20059;-59
2023/05/02 04:59:29;;;;;;;18.30;11.15;;;;;;;6.13;100.00;94212.53;4782045;30;20230;-62
2023/05/02 05:01:56;;;;;;;16.95;10.55;;;;;;;6.07;100.00;94219.50;4795094;29;20084;-59
2023/05/02 05:04:23;;;;;;;16.13;10.20;;;;;;;6.27;100.00;94215.34;4800727;29;20505;-60
2023/05/02 05:06:50;;;;;;;15.23;9.90;;;;;;;6.43;100.00;94215.03;4800142;29;20070;-60
2023/05/02 05:09:17;;;;;;;17.23;10.82;;;;;;;6.54;100.00;94217.81;4800613;29;20051;-60
2023/05/02 05:11:45;;;;;;;19.48;10.68;;;;;;;6.59;100.00;94223.69;4800071;29;20689;-60
2023/05/02 05:14:11;;;;;;;18.15;10.65;;;;;;;6.66;100.00;94220.22;4800807;29;20055;-65
2023/05/02 05:16:38;;;;;;;17.87;11.60;;;;;;;6.73;100.00;94212.06;4800174;29;20059;-59
2023/05/02 05:19:05;;;;;;;19.58;12.00;;;;;;;6.90;100.00;94217.97;4800514;29;20065;-60
2023/05/02 05:21:32;;;;;;;22.92;13.88;;;;;;;7.11;100.00;94226.22;4799484;29;20406;-61
2023/05/02 05:23:59;;;;;;;20.23;12.75;;;;;;;7.24;100.00;94215.72;4800610;29;20055;-60
2023/05/02 05:26:26;;;;;;;23.63;14.07;;;;;;;7.30;100.00;94222.38;4800065;29;20047;-62
2023/05/02 05:28:53;;;;;;;23.07;13.50;;;;;;;7.42;100.00;94215.75;4784676;29;20085;-60
2023/05/02 05:31:21;;;;;;;23.40;14.05;;;;;;;7.65;100.00;94218.16;4802799;29;20046;-58
2023/05/02 05:33:48;;;;;;;22.13;14.02;;;;;;;7.83;100.00;94222.81;4787801;29;20046;-59
2023/05/02 05:36:15;;;;;;;22.83;14.52;;;;;;;7.88;100.00;94216.97;4787782;29;20065;-60
2023/05/02 05:38:41;;;;;;;24.75;14.40;;;;;;;8.02;100.00;94224.38;4803314;29;20051;-60
2023/05/02 05:41:09;;;;;;;24.33;14.60;;;;;;;8.15;100.00;94220.09;4803772;29;20055;-62
2023/05/02 05:43:36;;;;;;;23.52;13.98;;;;;;;8.23;100.00;94221.63;4803015;29;20057;-62
2023/05/02 05:46:04;;;;;;;23.55;14.98;;;;;;;8.45;100.00;94218.88;4802073;29;20106;-60
2023/05/02 05:48:31;;;;;;;24.30;14.73;;;;;;;8.72;100.00;94217.25;4784730;29;20063;-62
2023/05/02 05:51:01;;;;;;;22.98;14.45;;;;;;;8.79;100.00;94219.97;4785719;30;20108;-59
2023/05/02 05:53:28;;;;;;;23.50;14.20;;;;;;;8.88;100.00;94216.03;4784932;30;20055;-59
2023/05/02 05:55:55;;;;;;;23.67;14.02;;;;;;;8.88;100.00;94211.31;4785623;30;20441;-59
2023/05/02 05:58:21;;;;;;;22.83;14.48;;;;;;;8.81;100.00;94216.81;4784831;29;20073;-60
2023/05/02 06:00:49;;;;;;;23.13;14.18;;;;;;;8.89;100.00;94209.34;4785563;30;20057;-62
2023/05/02 06:03:16;;;;;;;28.70;15.00;;;;;;;9.29;100.00;94213.47;4785249;30;20051;-61
2023/05/02 06:05:42;;;;;;;21.87;13.90;;;;;;;9.32;100.00;94218.16;4784977;30;20047;-60
2023/05/02 06:08:09;;;;;;;24.30;15.55;;;;;;;9.15;100.00;94219.78;4785462;30;20086;-62
2023/05/02 06:10:36;;;;;;;23.80;15.07;;;;;;;8.95;100.00;94230.47;4768400;29;20482;-60
2023/05/02 06:13:02;;;;;;;24.35;16.02;;;;;;;9.14;100.00;94222.94;4785155;30;20059;-60
2023/05/02 06:15:32;;;;;;;25.33;16.60;;;;;;;8.93;100.00;94229.28;4784440;29;20401;-63
2023/05/02 06:17:59;;;;;;;23.87;14.67;;;;;;;9.28;100.00;94233.06;4784920;29;20078;-61
2023/05/02 06:20:26;;;;;;;19.98;13.65;;;;;;;9.74;100.00;94235.50;4784299;29;20466;-61
2023/05/02 06:22:53;;;;;;;17.30;12.27;;;;;;;10.15;100.00;94228.53;4785158;30;20059;-61
2023/05/02 06:25:19;;;;;;;17.85;11.90;;;;;;;10.83;100.00;94227.13;4784386;30;20151;-61
2023/05/02 06:27:46;;;;;;;14.98;10.73;;;;;;;10.69;100.00;94231.56;4784827;30;20494;-60
2023/05/02 06:30:13;;;;;;;19.30;12.53;;;;;;;11.47;100.00;94228.28;4785176;30;20050;-59
2023/05/02 06:32:42;;;;;;;22.65;16.10;;;;;;;10.12;100.00;94232.88;4783959;29;20417;-61
2023/05/02 06:35:10;;;;;;;24.05;17.27;;;;;;;9.46;100.00;94232.97;4784746;30;20225;-60
2023/05/02 06:37:37;;;;;;;23.08;16.55;;;;;;;9.40;100.00;94238.06;4784005;30;20292;-59
2023/05/02 06:40:04;;;;;;;20.70;13.77;;;;;;;9.86;100.00;94239.72;4769090;30;20632;-61
2023/05/02 06:42:31;;;;;;;20.93;13.40;;;;;;;10.98;100.00;94231.25;4778162;29;20454;-60
2023/05/02 06:44:57;;;;;;;19.70;14.27;;;;;;;10.81;100.00;94235.00;4802914;29;20465;-59
2023/05/02 06:47:25;;;;;;;20.05;14.75;;;;;;;10.39;100.00;94232.25;4783221;29;20055;-60
2023/05/02 06:49:52;;;;;;;18.55;13.88;;;;;;;10.35;100.00;94240.53;4802025;29;20111;-61
2023/05/02 06:52:19;;;;;;;15.50;11.10;;;;;;;12.01;100.00;94233.03;4801233;29;20070;-60
2023/05/02 06:54:46;;;;;;;16.37;11.73;;;;;;;11.06;100.00;94238.22;4801950;29;20699;-62
2023/05/02 06:57:12;;;;;;;15.20;11.93;;;;;;;10.32;100.00;94235.06;4802113;29;20450;-61
2023/05/02 06:59:39;;;;;;;18.95;10.88;;;;;;;11.52;100.00;94234.09;4801896;29;20051;-60
2023/05/02 07:02:07;;;;;;;11.88;8.60;;;;;;;12.07;100.00;94236.84;4786553;29;20046;-61
2023/05/02 07:04:33;;;;;;;13.43;9.10;;;;;;;12.43;100.00;94234.28;4801641;29;20046;-61
2023/05/02 07:07:00;;;;;;;12.40;8.90;;;;;;;12.38;100.00;94241.06;4801658;29;20042;-62
2023/05/02 07:09:27;;;;;;;17.92;9.50;;;;;;;12.08;100.00;94238.41;4801694;29;20169;-63
2023/05/02 07:11:53;;;;;;;14.60;10.00;;;;;;;12.25;100.00;94244.81;4802206;29;20085;-63
2023/05/02 07:14:20;;;;;;;14.85;9.65;;;;;;;11.81;100.00;94252.91;4785729;29;20047;-61
2023/05/02 07:16:47;;;;;;;15.68;10.45;;;;;;;11.38;100.00;94259.78;4786236;29;20055;-61
2023/05/02 07:19:14;;;;;;;17.80;10.53;;;;;;;11.17;100.00;94269.09;4802414;29;20124;-63
2023/05/02 07:21:41;;;;;;;15.25;10.65;;;;;;;11.17;100.00;94260.84;4785968;29;20047;-62
2023/05/02 07:24:07;;;;;;;18.20;13.68;;;;;;;10.06;100.00;94261.91;4802611;29;20047;-61
2023/05/02 07:26:34;;;;;;;18.05;13.13;;;;;;;9.84;100.00;94258.53;4801801;29;20094;-62
2023/05/02 07:29:01;;;;;;;17.17;12.65;;;;;;;9.96;100.00;94265.47;4786610;29;20054;-61
2023/05/02 07:31:28;;;;;;;19.40;11.97;;;;;;;10.73;100.00;94268.00;4785775;29;20377;-60
2023/05/02 07:33:54;;;;;;;17.10;12.90;;;;;;;10.80;100.00;94264.38;4802068;29;20073;-63
2023/05/02 07:36:21;;;;;;;14.45;10.75;;;;;;;12.27;100.00;94259.72;4801797;29;20119;-62
2023/05/02 07:38:48;;;;;;;13.60;8.98;;;;;;;12.53;100.00;94262.81;4802424;29;20061;-61
2023/05/02 07:41:15;;;;;;;12.43;9.30;;;;;;;13.29;100.00;94267.72;4802456;29;20073;-61
2023/05/02 07:43:41;;;;;;;13.47;9.43;;;;;;;13.07;100.00;94259.88;4801667;29;20498;-61
2023/05/02 07:46:08;;;;;;;13.15;8.82;;;;;;;14.18;100.00;94260.31;4800226;29;20047;-62
2023/05/02 07:48:35;;;;;;;12.13;7.80;;;;;;;15.39;100.00;94268.66;4783579;30;20059;-64
2023/05/02 07:51:06;;;;;;;11.43;8.48;;;;;;;14.16;99.87;94265.47;4753737;30;20059;-62
2023/05/02 07:53:33;;;;;;;13.05;8.68;;;;;;;14.53;99.63;94273.69;4783210;30;20055;-62
2023/05/02 07:56:05;;;;;;;13.67;9.03;;;;;;;14.80;91.68;94270.66;4784177;30;20047;-63
2023/05/02 07:58:31;;;;;;;10.73;8.02;;;;;;;16.22;86.58;94274.56;4783548;30;20059;-62
2023/05/02 08:00:58;;;;;;;10.85;8.07;;;;;;;16.63;83.15;94268.09;4784249;30;20059;-62
2023/05/02 08:03:25;;;;;;;11.60;8.32;;;;;;;15.54;85.33;94280.88;4783209;30;20059;-65
2023/05/02 08:05:52;;;;;;;12.30;8.48;;;;;;;15.80;88.75;94274.66;4783718;30;20051;-62
2023/05/02 08:08:19;;;;;;;14.03;8.50;;;;;;;16.45;85.19;94281.75;4783411;30;20117;-60
2023/05/02 08:10:46;;;;;;;12.93;9.15;;;;;;;16.24;81.18;94288.75;4767133;30;20058;-62
2023/05/02 08:13:13;;;;;;;12.20;9.48;;;;;;;16.15;82.25;94276.34;4783785;30;20439;-63
2023/05/02 08:15:39;;;;;;;11.27;9.57;;;;;;;15.34;87.97;94286.56;4782979;30;20057;-62
2023/05/02 08:18:06;;;;;;;12.52;10.05;;;;;;;15.77;86.37;94274.34;4783570;30;20475;-65
2023/05/02 08:20:33;;;;;;;11.57;9.40;;;;;;;17.21;80.16;94275.28;4783048;30;20404;-62
2023/05/02 08:23:00;;;;;;;10.65;8.80;;;;;;;18.80;65.78;94273.66;4767760;30;20501;-62
2023/05/02 08:25:27;;;;;;;11.85;8.88;;;;;;;19.69;62.89;94271.81;4782950;30;20055;-63
2023/05/02 08:27:53;;;;;;;14.13;8.85;;;;;;;18.83;65.73;94271.97;4767480;30;20070;-62
2023/05/02 08:30:20;;;;;;;10.82;8.40;;;;;;;18.84;65.18;94270.75;4767236;30;20216;-62
2023/05/02 08:32:47;;;;;;;24.30;8.67;;;;;;;19.81;60.31;94281.28;4783480;30;20065;-62
2023/05/02 08:35:14;;;;;;;13.43;9.07;;;;;;;16.82;69.95;94282.97;4783859;30;20473;-61
2023/05/02 08:37:40;;;;;;;13.77;9.32;;;;;;;17.31;75.42;94282.44;4782575;30;20049;-62
2023/05/02 08:40:11;;;;;;;17.60;9.13;;;;;;;21.46;57.34;94278.94;4783471;30;20059;-64
2023/05/02 08:42:41;;;;;;;13.50;8.15;;;;;;;21.46;56.62;94278.19;4766706;30;20063;-62
2023/05/02 08:45:11;;;;;;;10.80;8.00;;;;;;;24.04;47.51;94279.69;4783530;30;20051;-64
2023/05/02 08:47:41;;;;;;;9.55;8.05;;;;;;;23.11;47.12;94286.78;4796266;29;20046;-64
2023/05/02 08:50:09;;;;;;;8.40;7.40;;;;;;;23.03;47.57;94294.03;4801604;29;20408;-64
2023/05/02 08:52:39;;;;;;;13.98;8.77;;;;;;;20.34;50.02;94302.34;4800834;29;20050;-65
2023/05/02 08:55:07;;;;;;;9.35;7.43;;;;;;;21.99;49.39;94299.72;4801297;29;20085;-62
2023/05/02 08:57:33;;;;;;;9.83;7.00;;;;;;;22.32;47.78;94301.59;4784560;29;20083;-62
2023/05/02 09:00:00;;;;;;;8.77;7.40;;;;;;;21.77;49.05;94304.91;4801741;29;20057;-62
2023/05/02 09:02:54;;;;;;;10.00;7.50;;;;;;;20.63;51.39;94299.00;4800817;29;20054;-62
2023/05/02 09:05:23;;;;;;;8.32;7.43;;;;;;;20.17;51.55;94307.50;4802273;29;20043;-62
2023/05/02 09:07:51;;;;;;;11.25;8.45;;;;;;;19.29;54.21;94311.75;4805032;29;20106;-62
2023/05/02 09:10:18;;;;;;;10.00;7.93;;;;;;;18.11;59.72;94306.13;4788722;29;20051;-62
2023/05/02 09:12:44;;;;;;;9.60;7.05;;;;;;;20.26;54.11;94310.28;4803984;29;21565;-63
2023/05/02 09:15:13;;;;;;;13.32;8.32;;;;;;;20.67;51.33;94315.56;4804917;29;20047;-62
2023/05/02 09:17:42;;;;;;;8.68;7.07;;;;;;;21.68;49.11;94316.94;4804021;29;20055;-62
2023/05/02 09:20:14;;;;;;;10.40;7.78;;;;;;;18.79;55.68;94316.59;4804414;29;20054;-62
2023/05/02 09:22:49;;;;;;;12.50;7.60;;;;;;;19.62;54.37;94315.91;4804184;29;20046;-61
2023/05/02 09:25:18;;;;;;;13.38;7.93;;;;;;;18.49;56.63;94320.94;4804859;29;20047;-63
2023/05/02 09:28:03;;;;;;;10.50;7.72;;;;;;;18.30;58.25;94322.88;4803551;29;20701;-64
2023/05/02 09:30:30;;;;;;;12.82;7.82;;;;;;;18.46;59.93;94328.19;4804048;29;20046;-62
2023/05/02 09:32:56;;;;;;;12.57;8.18;;;;;;;18.37;59.71;94330.94;4804470;29;20055;-61
2023/05/02 09:35:23;;;;;;;25.30;8.13;;;;;;;18.99;57.31;94335.66;4803850;29;20059;-62
2023/05/02 09:37:57;;;;;;;10.85;6.80;;;;;;;19.50;56.50;94323.97;4804292;29;20089;-61
2023/05/02 09:40:24;;;;;;;9.68;6.80;;;;;;;19.48;54.25;94329.22;4804134;29;20043;-62
2023/05/02 09:42:51;;;;;;;9.80;6.88;;;;;;;19.45;53.24;94321.78;4804140;29;20065;-63
2023/05/02 09:45:25;;;;;;;11.00;8.55;;;;;;;17.97;58.01;94320.56;4804000;29;20505;-57
2023/05/02 09:47:52;;;;;;;14.90;9.67;;;;;;;17.22;60.16;94331.53;4788580;29;20123;-64
2023/05/02 09:50:35;;;;;;;11.18;8.77;;;;;;;17.69;60.18;94325.91;4785507;29;20051;-61
2023/05/02 09:53:04;;;;;;;19.65;8.98;;;;;;;18.95;57.11;94332.25;4786133;30;20051;-64
2023/05/02 09:55:31;;;;;;;12.73;9.18;;;;;;;20.27;50.29;94328.53;4785353;30;20055;-62
2023/05/02 09:57:59;;;;;;;11.85;8.90;;;;;;;21.37;48.38;94326.47;4786194;29;20058;-61
2023/05/02 10:00:43;;;;;;;10.63;8.63;;;;;;;23.18;44.36;94321.22;4785712;29;20065;-62
2023/05/02 10:03:15;;;;;;;9.35;8.32;;;;;;;24.68;40.73;94322.59;4786135;30;20051;-63
2023/05/02 10:05:44;;;;;;;13.35;8.90;;;;;;;24.95;37.30;94323.28;4785565;29;20528;-63
2023/05/02 10:08:11;;;;;;;13.43;7.82;;;;;;;25.53;36.44;94323.91;4785977;29;20084;-63
2023/05/02 10:10:40;;;;;;;9.40;7.88;;;;;;;25.81;34.91;94326.06;4785051;29;20454;-62
2023/05/02 10:13:07;;;;;;;8.77;7.60;;;;;;;23.45;39.31;94323.59;4785769;30;20059;-62
2023/05/02 10:15:40;;;;;;;11.40;9.43;;;;;;;21.19;42.50;94329.38;4785173;29;20044;-61
2023/05/02 10:18:14;;;;;;;19.88;10.55;;;;;;;18.60;50.13;94331.66;4785844;30;20051;-64
2023/05/02 10:20:55;;;;;;;14.85;10.07;;;;;;;20.94;46.73;94328.59;4784942;30;20512;-62
2023/05/02 10:23:25;;;;;;;17.52;11.65;;;;;;;18.22;52.70;94330.72;4785050;29;20059;-62
2023/05/02 10:25:52;;;;;;;12.03;9.60;;;;;;;19.50;50.56;94328.78;4785375;30;20051;-62
2023/05/02 10:28:19;;;;;;;15.90;11.50;;;;;;;18.45;52.04;94334.22;4784984;29;20054;-63
2023/05/02 10:30:48;;;;;;;14.07;11.23;;;;;;;16.24;57.26;94333.84;4785421;29;20554;-62
2023/05/02 10:33:16;;;;;;;12.27;10.50;;;;;;;17.63;57.99;94329.72;4769758;30;20070;-64
2023/05/02 10:35:44;;;;;;;11.30;9.30;;;;;;;17.58;55.93;94325.50;4784924;30;20043;-62
2023/05/02 10:38:19;;;;;;;15.20;10.40;;;;;;;18.73;52.45;94330.31;4785384;30;20055;-62
2023/05/02 10:40:55;;;;;;;13.57;10.70;;;;;;;18.84;52.76;94329.91;4784318;29;21302;-62
2023/05/02 10:43:24;;;;;;;12.75;10.23;;;;;;;19.74;49.60;94320.59;4784915;30;20052;-62
2023/05/02 10:45:52;;;;;;;14.68;10.18;;;;;;;19.33;51.04;94328.28;4785017;29;20059;-63
2023/05/02 10:48:21;;;;;;;11.25;9.90;;;;;;;20.46;48.51;94318.06;4802472;29;20176;-62
2023/05/02 10:50:54;;;;;;;13.70;10.27;;;;;;;19.77;48.70;94322.44;4802872;29;20051;-64
2023/05/02 10:53:24;;;;;;;13.60;10.38;;;;;;;18.60;50.72;94320.53;4786541;29;20493;-59
2023/05/02 10:56:24;;;;;;;19.17;10.50;;;;;;;19.33;49.59;94312.34;4802855;29;20047;-62
2023/05/02 10:59:26;;;;;;;12.10;9.43;;;;;;;19.58;46.97;94307.75;4801973;29;20473;-61
2023/05/02 11:01:53;;;;;;;15.57;8.25;;;;;;;21.47;43.87;94302.06;4801766;29;20252;-63
2023/05/02 11:04:20;;;;;;;17.97;8.80;;;;;;;20.06;47.70;94308.00;4802145;29;20515;-60
2023/05/02 11:06:55;;;;;;;11.75;8.50;;;;;;;19.81;48.40;94309.13;4802695;29;20437;-62
2023/05/02 11:09:22;;;;;;;15.25;9.65;;;;;;;18.76;49.14;94317.50;4802401;29;20055;-61
2023/05/02 11:11:51;;;;;;;17.00;10.57;;;;;;;18.95;50.48;94310.00;4802509;29;20047;-63
2023/05/02 11:14:29;;;;;;;16.30;10.48;;;;;;;19.73;48.61;94317.03;4802259;29;20043;-62
2023/05/02 11:16:59;;;;;;;14.87;10.50;;;;;;;18.51;50.30;94307.38;4801122;29;20129;-63
2023/05/02 11:19:52;;;;;;;19.33;10.80;;;;;;;17.20;54.73;94309.00;4801620;29;20085;-63
2023/05/02 11:22:26;;;;;;;13.52;9.75;;;;;;;17.47;52.78;94305.69;4801988;29;20424;-62
2023/05/02 11:24:53;;;;;;;16.58;12.02;;;;;;;17.58;53.39;94303.28;4802509;29;20051;-61
2023/05/02 11:27:29;;;;;;;13.25;10.50;;;;;;;16.63;54.78;94314.44;4801566;29;20568;-61
2023/05/02 11:29:57;;;;;;;11.83;9.93;;;;;;;16.57;54.53;94305.91;4802124;29;20102;-62
2023/05/02 11:32:48;;;;;;;12.68;9.88;;;;;;;16.76;56.02;94304.09;4801818;29;20063;-62